createdAt,value
2022-08-09T00:00:14.225Z,50.09
2022-08-09T00:02:43.038Z,50.21
2022-08-09T00:06:17.499Z,50.17
2022-08-09T00:08:02.690Z,50.19
2022-08-09T00:10:29.456Z,51.01
2022-08-09T00:12:57.218Z,50.95
2022-08-09T00:15:26.538Z,50.68
2022-08-09T00:18:12.557Z,51.25
2022-08-09T00:20:48.208Z,51.41
2022-08-09T00:23:58.320Z,51.19
2022-08-09T00:26:10.901Z,51.38
2022-08-09T00:28:38.715Z,50.95
2022-08-09T00:31:09.264Z,50.74
2022-08-09T00:33:54.798Z,51.03
2022-08-09T00:36:29.572Z,50.87
2022-08-09T00:38:58.683Z,51.40
2022-08-09T00:44:10.786Z,51.54
2022-08-09T00:44:25.506Z,51.23
2022-08-09T00:46:55.791Z,50.97
2022-08-09T00:49:24.937Z,54.69
2022-08-09T00:51:57.162Z,57.06
2022-08-09T00:54:31.483Z,55.38
2022-08-09T00:57:02.522Z,56.46
2022-08-09T00:59:45.900Z,56.92
2022-08-09T01:02:20.719Z,58.00
2022-08-09T01:05:14.277Z,58.37
2022-08-09T01:08:00.332Z,58.61
2022-08-09T01:11:08.451Z,60.12
2022-08-09T01:13:58.529Z,59.58
2022-08-09T01:16:33.010Z,59.29
2022-08-09T01:19:16.923Z,61.59
2022-08-09T01:22:16.591Z,60.07
2022-08-09T01:25:00.823Z,63.66
2022-08-09T01:27:29.191Z,63.04
2022-08-09T01:30:02.314Z,63.38
2022-08-09T01:32:44.047Z,62.63
2022-08-09T01:35:38.382Z,63.29
2022-08-09T01:38:14.825Z,63.62
2022-08-09T01:40:52.892Z,60.52
2022-08-09T01:43:32.501Z,63.10
2022-08-09T01:46:24.672Z,62.56
2022-08-09T01:49:00.307Z,63.42
2022-08-09T01:51:44.690Z,62.85
2022-08-09T01:54:28.178Z,63.25
2022-08-09T01:57:04.061Z,65.01
2022-08-09T01:59:32.753Z,63.98
2022-08-09T02:02:15.964Z,64.25
2022-08-09T02:04:46.681Z,63.87
2022-08-09T02:08:34.863Z,62.99
2022-08-09T02:10:15.367Z,60.14
2022-08-09T02:12:45.771Z,60.97
2022-08-09T02:15:16.811Z,61.33
2022-08-09T02:17:59.889Z,62.37
2022-08-09T02:20:32.924Z,62.15
2022-08-09T02:23:03.823Z,62.22
2022-08-09T02:25:41.885Z,62.67
2022-08-09T02:28:17.771Z,63.26
2022-08-09T02:31:01.546Z,62.87
2022-08-09T02:33:37.714Z,63.29
2022-08-09T02:36:26.370Z,63.09
2022-08-09T02:38:55.823Z,62.32
2022-08-09T02:41:30.628Z,61.65
2022-08-09T02:44:10.287Z,62.22
2022-08-09T02:46:41.660Z,61.73
2022-08-09T02:49:15.085Z,61.50
2022-08-09T02:51:44.663Z,61.33
2022-08-09T02:54:15.199Z,61.39
2022-08-09T02:56:51.218Z,61.25
2022-08-09T02:59:26.454Z,61.05
2022-08-09T03:02:12.018Z,60.91
2022-08-09T03:04:40.810Z,60.04
2022-08-09T03:07:14.299Z,60.73
2022-08-09T03:09:43.422Z,61.05
2022-08-09T03:12:23.172Z,61.03
2022-08-09T03:14:51.538Z,59.97
2022-08-09T03:17:26.372Z,59.53
2022-08-09T03:20:00.380Z,59.48
2022-08-09T03:22:41.312Z,60.47
2022-08-09T03:25:26.911Z,60.41
2022-08-09T03:28:00.748Z,59.81
2022-08-09T03:30:33.257Z,60.47
2022-08-09T03:33:05.509Z,60.50
2022-08-09T03:36:11.677Z,61.13
2022-08-09T03:38:28.751Z,61.16
2022-08-09T03:40:55.776Z,61.60
2022-08-09T03:43:22.478Z,61.91
2022-08-09T03:46:03.186Z,61.46
2022-08-09T03:48:36.142Z,61.00
2022-08-09T03:51:55.542Z,60.60
2022-08-09T03:53:58.979Z,60.22
2022-08-09T03:56:26.874Z,59.80
2022-08-09T03:58:54.702Z,60.16
2022-08-09T04:01:21.523Z,60.64
2022-08-09T04:04:01.315Z,60.46
2022-08-09T04:06:30.588Z,60.09
2022-08-09T04:08:57.252Z,60.16
2022-08-09T04:11:23.877Z,60.20
2022-08-09T04:14:37.436Z,59.68
2022-08-09T04:16:38.866Z,60.35
2022-08-09T04:19:10.883Z,60.43
2022-08-09T04:21:43.633Z,60.93
2022-08-09T04:24:10.208Z,60.83
2022-08-09T04:26:38.419Z,60.57
2022-08-09T04:29:10.936Z,60.66
2022-08-09T04:31:46.795Z,60.42
2022-08-09T04:34:19.094Z,60.29
2022-08-09T04:36:58.328Z,60.44
2022-08-09T04:39:25.012Z,60.27
2022-08-09T04:41:57.830Z,60.54
2022-08-09T04:44:27.012Z,60.55
2022-08-09T04:46:58.495Z,60.87
2022-08-09T04:49:52.347Z,61.31
2022-08-09T04:52:32.229Z,60.83
2022-08-09T04:55:02.034Z,60.70
2022-08-09T04:57:59.411Z,60.68
2022-08-09T05:00:17.943Z,60.54
2022-08-09T05:02:51.688Z,60.23
2022-08-09T05:05:32.074Z,59.95
2022-08-09T05:08:06.355Z,59.96
2022-08-09T05:10:34.119Z,60.09
2022-08-09T05:13:03.859Z,60.46
2022-08-09T05:15:42.719Z,60.72
2022-08-09T05:18:39.352Z,60.50
2022-08-09T05:21:01.743Z,60.78
2022-08-09T05:23:54.698Z,60.30
2022-08-09T05:26:15.994Z,60.26
2022-08-09T05:28:56.381Z,60.33
2022-08-09T05:31:23.747Z,59.56
2022-08-09T05:34:16.580Z,58.88
2022-08-09T05:36:47.124Z,58.40
2022-08-09T05:39:28.341Z,57.36
2022-08-09T05:41:55.600Z,58.72
2022-08-09T05:44:29.131Z,58.27
2022-08-09T05:46:59.395Z,58.02
2022-08-09T05:50:32.452Z,57.20
2022-08-09T05:52:12.741Z,57.00
2022-08-09T05:54:40.237Z,57.12
2022-08-09T05:57:07.759Z,57.05
2022-08-09T05:59:39.551Z,56.97
2022-08-09T06:02:10.073Z,56.85
2022-08-09T06:04:37.236Z,56.52
2022-08-09T06:07:11.687Z,56.53
2022-08-09T06:09:54.370Z,55.97
2022-08-09T06:12:26.635Z,56.48
2022-08-09T06:15:00.754Z,55.71
2022-08-09T06:17:40.273Z,56.00
2022-08-09T06:20:08.316Z,56.18
2022-08-09T06:22:35.802Z,55.56
2022-08-09T06:25:03.658Z,55.92
2022-08-09T06:27:43.036Z,55.99
2022-08-09T06:30:17.056Z,55.15
2022-08-09T06:33:00.161Z,55.16
2022-08-09T06:35:55.772Z,55.67
2022-08-09T06:38:19.645Z,55.88
2022-08-09T06:40:58.744Z,56.04
2022-08-09T06:43:27.034Z,56.24
2022-08-09T06:46:07.003Z,56.14
2022-08-09T06:48:37.139Z,56.07
2022-08-09T06:51:10.596Z,56.17
2022-08-09T06:53:38.778Z,55.93
2022-08-09T06:56:07.151Z,55.76
2022-08-09T07:00:47.522Z,54.91
2022-08-09T07:01:24.268Z,54.56
2022-08-09T07:04:03.867Z,53.97
2022-08-09T07:06:30.970Z,53.89
2022-08-09T07:08:58.224Z,53.73
2022-08-09T07:11:25.481Z,53.13
2022-08-09T07:14:05.291Z,52.58
2022-08-09T07:16:42.790Z,52.63
2022-08-09T07:19:18.691Z,52.81
2022-08-09T07:21:57.386Z,52.53
2022-08-09T07:24:31.949Z,52.08
2022-08-09T07:27:01.381Z,51.98
2022-08-09T07:29:30.837Z,51.45
2022-08-09T07:32:05.569Z,51.25
2022-08-09T07:34:32.599Z,50.78
2022-08-09T07:37:02.659Z,49.81
2022-08-09T07:39:40.830Z,49.28
2022-08-09T07:42:09.855Z,48.91
2022-08-09T07:44:51.113Z,48.36
2022-08-09T07:47:21.094Z,47.86
2022-08-09T07:50:04.773Z,47.87
2022-08-09T07:52:35.878Z,48.11
2022-08-09T07:55:08.606Z,48.92
2022-08-09T07:57:36.490Z,48.41
2022-08-09T08:00:08.860Z,48.49
2022-08-09T08:02:36.629Z,48.21
2022-08-09T08:05:17.690Z,48.55
2022-08-09T08:08:42.452Z,48.58
2022-08-09T08:10:34.452Z,48.10
2022-08-09T08:13:01.443Z,48.79
2022-08-09T08:15:30.639Z,48.62
2022-08-09T08:18:02.245Z,48.62
2022-08-09T08:20:32.628Z,48.21
2022-08-09T08:23:06.562Z,47.75
2022-08-09T08:25:48.213Z,47.97
2022-08-09T08:28:25.658Z,47.08
2022-08-09T08:31:00.192Z,47.01
2022-08-09T08:33:40.653Z,47.81
2022-08-09T08:36:28.397Z,48.09
2022-08-09T08:38:56.724Z,47.66
2022-08-09T08:41:24.642Z,47.50
2022-08-09T08:44:09.643Z,47.85
2022-08-09T08:47:02.581Z,47.36
2022-08-09T08:49:38.417Z,46.71
2022-08-09T08:52:09.987Z,46.66
2022-08-09T08:54:37.771Z,45.70
2022-08-09T08:57:11.365Z,46.09
2022-08-09T08:59:46.799Z,44.92
2022-08-09T09:02:30.769Z,44.79
2022-08-09T09:05:06.497Z,44.01
2022-08-09T09:07:44.720Z,43.98
2022-08-09T09:10:11.949Z,44.02
2022-08-09T09:12:40.148Z,43.71
2022-08-09T09:15:07.345Z,44.16
2022-08-09T09:17:48.565Z,43.04
2022-08-09T09:20:21.205Z,43.15
2022-08-09T09:23:01.586Z,43.00
2022-08-09T09:26:01.105Z,43.00
2022-08-09T09:29:02.589Z,42.62
2022-08-09T09:32:01.617Z,42.12
2022-08-09T09:34:14.455Z,41.83
2022-08-09T09:36:51.017Z,42.35
2022-08-09T09:39:23.412Z,42.07
2022-08-09T09:41:52.309Z,41.56
2022-08-09T09:44:31.474Z,41.65
2022-08-09T09:47:09.424Z,41.10
2022-08-09T09:50:13.542Z,41.38
2022-08-09T09:52:36.869Z,41.04
2022-08-09T09:55:27.662Z,40.32
2022-08-09T09:58:16.353Z,39.91
2022-08-09T10:00:58.734Z,38.40
2022-08-09T10:03:57.289Z,38.01
2022-08-09T10:06:42.837Z,38.11
2022-08-09T10:09:22.108Z,38.20
2022-08-09T10:12:14.803Z,38.32
2022-08-09T10:14:49.903Z,38.37
2022-08-09T10:17:50.802Z,39.00
2022-08-09T10:20:27.053Z,38.05
2022-08-09T10:23:13.537Z,37.84
2022-08-09T10:26:06.034Z,36.83
2022-08-09T10:28:28.681Z,37.47
2022-08-09T10:34:11.106Z,35.96
2022-08-09T10:36:31.589Z,35.07
2022-08-09T10:39:02.436Z,35.30
2022-08-09T10:41:29.120Z,34.35
2022-08-09T10:43:59.634Z,34.59
2022-08-09T10:46:57.690Z,33.59
2022-08-09T10:49:50.346Z,33.59
2022-08-09T10:52:30.672Z,34.05
2022-08-09T10:55:18.781Z,33.58
2022-08-09T10:57:45.761Z,33.57
2022-08-09T11:00:50.880Z,33.21
2022-08-09T11:03:50.709Z,32.69
2022-08-09T11:06:26.205Z,32.34
2022-08-09T11:08:53.901Z,32.22
2022-08-09T11:11:21.720Z,32.55
2022-08-09T11:14:28.312Z,32.14
2022-08-09T11:16:56.294Z,31.82
2022-08-09T11:20:07.803Z,31.33
2022-08-09T11:22:43.061Z,31.50
2022-08-09T11:25:18.615Z,31.49
2022-08-09T11:28:08.002Z,31.44
2022-08-09T11:30:48.126Z,31.76
2022-08-09T11:33:17.826Z,31.44
2022-08-09T11:35:50.022Z,30.41
2022-08-09T11:38:32.148Z,29.99
2022-08-09T11:41:05.579Z,29.23
2022-08-09T11:43:35.703Z,29.92
2022-08-09T11:46:06.052Z,30.27
2022-08-09T11:48:45.620Z,29.73
2022-08-09T11:52:57.153Z,29.79
2022-08-09T11:54:28.438Z,29.47
2022-08-09T11:57:47.914Z,28.57
2022-08-09T12:00:32.756Z,28.51
2022-08-09T12:03:50.324Z,28.74
2022-08-09T12:05:49.478Z,28.00
2022-08-09T12:08:21.416Z,27.54
2022-08-09T12:10:53.041Z,27.07
2022-08-09T12:14:08.036Z,27.23
2022-08-09T12:16:38.402Z,26.83
2022-08-09T12:19:09.687Z,26.81
2022-08-09T12:21:50.522Z,27.60
2022-08-09T12:24:25.302Z,26.97
2022-08-09T12:29:09.876Z,26.15
2022-08-09T12:30:00.010Z,25.82
2022-08-09T12:32:31.309Z,26.07
2022-08-09T12:35:04.579Z,25.93
2022-08-09T12:37:44.207Z,25.53
2022-08-09T12:40:20.554Z,25.92
2022-08-09T12:42:50.587Z,25.46
2022-08-09T12:45:35.077Z,25.28
2022-08-09T12:48:20.160Z,24.51
2022-08-09T12:50:57.666Z,25.07
2022-08-09T12:53:37.731Z,24.34
2022-08-09T12:56:14.165Z,24.31
2022-08-09T12:59:03.247Z,24.49
2022-08-09T13:01:30.986Z,24.46
2022-08-09T13:04:08.777Z,23.67
2022-08-09T13:06:55.568Z,23.62
2022-08-09T13:09:24.808Z,23.33
2022-08-09T13:12:02.205Z,23.17
2022-08-09T13:14:43.996Z,22.61
2022-08-09T13:17:44.260Z,22.30
2022-08-09T13:20:16.332Z,22.54
2022-08-09T13:23:01.834Z,22.75
2022-08-09T13:25:54.573Z,23.12
2022-08-09T13:28:33.967Z,22.55
2022-08-09T13:32:14.142Z,22.61
2022-08-09T13:33:54.505Z,22.70
2022-08-09T13:36:24.500Z,22.23
2022-08-09T13:41:46.856Z,22.10
2022-08-09T13:42:04.094Z,22.61
2022-08-09T13:44:31.691Z,23.08
2022-08-09T13:47:26.519Z,24.07
2022-08-09T13:49:56.312Z,24.31
2022-08-09T13:52:26.135Z,25.20
2022-08-09T13:54:59.780Z,25.29
2022-08-09T13:57:36.305Z,25.60
2022-08-09T14:00:15.562Z,26.00
2022-08-09T14:03:02.936Z,26.11
2022-08-09T14:05:56.957Z,26.36
2022-08-09T14:08:21.657Z,26.62
2022-08-09T14:10:52.084Z,26.20
2022-08-09T14:13:27.936Z,26.80
2022-08-09T14:16:11.419Z,26.86
2022-08-09T14:18:45.474Z,26.90
2022-08-09T14:21:20.124Z,27.44
2022-08-09T14:23:54.104Z,27.47
2022-08-09T14:26:32.890Z,27.39
2022-08-09T14:29:25.244Z,27.28
2022-08-09T14:32:04.584Z,27.45
2022-08-09T14:34:41.173Z,27.00
2022-08-09T14:37:08.710Z,27.37
2022-08-09T14:39:40.362Z,27.55
2022-08-09T14:42:13.292Z,27.22
2022-08-09T14:46:45.958Z,27.41
2022-08-09T14:47:58.513Z,27.88
2022-08-09T14:50:27.631Z,27.73
2022-08-09T14:52:54.619Z,27.93
2022-08-09T14:55:21.722Z,28.29
2022-08-09T14:57:49.457Z,27.74
2022-08-09T15:00:17.645Z,28.05
2022-08-09T15:02:47.301Z,27.89
2022-08-09T15:05:16.248Z,28.34
2022-08-09T15:07:45.314Z,28.66
2022-08-09T15:10:21.528Z,28.23
2022-08-09T15:12:52.277Z,27.96
2022-08-09T15:15:18.903Z,28.97
2022-08-09T15:17:51.512Z,29.12
2022-08-09T15:21:57.383Z,29.08
2022-08-09T15:24:05.568Z,29.32
2022-08-09T15:25:58.595Z,29.39
2022-08-09T15:28:27.682Z,29.63
2022-08-09T15:31:10.230Z,29.91
2022-08-09T15:34:17.753Z,30.30
2022-08-09T15:36:30.457Z,30.26
2022-08-09T15:39:00.852Z,30.89
2022-08-09T15:41:31.204Z,30.74
2022-08-09T15:44:00.111Z,30.96
2022-08-09T15:46:33.380Z,30.90
2022-08-09T15:49:20.867Z,30.87
2022-08-09T15:52:03.002Z,31.63
2022-08-09T15:54:48.668Z,31.77
2022-08-09T15:57:19.244Z,32.29
2022-08-09T16:00:02.345Z,32.18
2022-08-09T16:02:29.000Z,32.40
2022-08-09T16:04:55.709Z,32.54
2022-08-09T16:07:22.616Z,33.19
2022-08-09T16:10:05.227Z,33.70
2022-08-09T16:12:33.341Z,33.71
2022-08-09T16:15:01.328Z,34.30
2022-08-09T16:17:28.923Z,34.44
2022-08-09T16:20:04.703Z,35.02
2022-08-09T16:22:42.400Z,34.68
2022-08-09T16:25:30.608Z,35.09
2022-08-09T16:28:05.310Z,35.12
2022-08-09T16:30:32.076Z,35.28
2022-08-09T16:33:08.534Z,35.57
2022-08-09T16:35:56.843Z,35.34
2022-08-09T16:38:23.489Z,35.70
2022-08-09T16:40:52.642Z,35.62
2022-08-09T16:43:20.906Z,35.62
2022-08-09T16:45:48.271Z,35.34
2022-08-09T16:48:39.029Z,35.54
2022-08-09T16:51:14.129Z,35.67
2022-08-09T16:54:02.448Z,35.83
2022-08-09T16:56:30.732Z,35.63
2022-08-09T16:58:58.539Z,35.66
2022-08-09T17:01:25.901Z,35.66
2022-08-09T17:03:54.485Z,35.71
2022-08-09T17:06:32.154Z,35.66
2022-08-09T17:09:16.090Z,35.94
2022-08-09T17:11:51.229Z,35.85
2022-08-09T17:14:28.123Z,35.71
2022-08-09T17:17:01.638Z,36.19
2022-08-09T17:19:47.558Z,35.59
2022-08-09T17:22:28.779Z,35.97
2022-08-09T17:25:03.623Z,35.85
2022-08-09T17:27:34.848Z,35.35
2022-08-09T17:30:06.717Z,35.21
2022-08-09T17:32:39.923Z,35.09
2022-08-09T17:35:12.858Z,35.41
2022-08-09T17:38:11.496Z,35.00
2022-08-09T17:40:28.429Z,34.95
2022-08-09T17:42:59.608Z,34.99
2022-08-09T17:46:02.016Z,34.78
2022-08-09T17:48:16.703Z,35.08
2022-08-09T17:50:55.889Z,35.01
2022-08-09T17:53:23.547Z,35.34
2022-08-09T17:55:59.008Z,35.38
2022-08-09T17:58:27.813Z,34.74
2022-08-09T18:00:58.419Z,35.18
2022-08-09T18:03:25.849Z,35.48
2022-08-09T18:05:55.264Z,35.28
2022-08-09T18:08:27.494Z,35.34
2022-08-09T18:11:01.886Z,35.20
2022-08-09T18:13:39.292Z,35.89
2022-08-09T18:16:09.136Z,36.11
2022-08-09T18:18:43.201Z,36.42
2022-08-09T18:21:23.810Z,36.53
2022-08-09T18:24:11.324Z,36.69
2022-08-09T18:26:46.859Z,36.94
2022-08-09T18:30:41.837Z,37.03
2022-08-09T18:32:05.533Z,36.75
2022-08-09T18:34:35.275Z,36.90
2022-08-09T18:37:10.477Z,37.46
2022-08-09T18:39:53.731Z,37.28
2022-08-09T18:42:21.079Z,37.25
2022-08-09T18:44:55.019Z,37.11
2022-08-09T18:47:24.098Z,37.54
2022-08-09T18:49:54.372Z,37.58
2022-08-09T18:52:24.845Z,37.61
2022-08-09T18:54:55.065Z,37.70
2022-08-09T18:57:22.934Z,37.76
2022-08-09T18:59:57.778Z,37.71
2022-08-09T19:02:31.939Z,38.02
2022-08-09T19:05:04.235Z,38.13
2022-08-09T19:08:04.066Z,38.02
2022-08-09T19:10:37.034Z,38.34
2022-08-09T19:13:19.985Z,38.40
2022-08-09T19:15:49.275Z,38.56
2022-08-09T19:18:33.504Z,38.26
2022-08-09T19:21:05.628Z,38.69
2022-08-09T19:24:37.524Z,38.99
2022-08-09T19:26:32.309Z,38.74
2022-08-09T19:29:18.151Z,39.01
2022-08-09T19:31:51.138Z,39.18
2022-08-09T19:34:24.822Z,39.21
2022-08-09T19:36:57.720Z,39.44
2022-08-09T19:39:43.280Z,39.27
2022-08-09T19:42:15.197Z,39.20
2022-08-09T19:44:49.319Z,39.46
2022-08-09T19:47:23.738Z,39.64
2022-08-09T19:50:07.500Z,39.65
2022-08-09T19:52:51.970Z,39.96
2022-08-09T19:55:30.489Z,39.59
2022-08-09T19:58:06.688Z,39.75
2022-08-09T20:00:45.356Z,39.88
2022-08-09T20:04:23.811Z,39.64
2022-08-09T20:06:00.025Z,40.08
2022-08-09T20:08:35.520Z,40.14
2022-08-09T20:11:05.266Z,40.39
2022-08-09T20:13:37.109Z,40.45
2022-08-09T20:16:33.458Z,40.56
2022-08-09T20:19:42.929Z,40.76
2022-08-09T20:21:55.260Z,40.54
2022-08-09T20:24:29.561Z,40.95
2022-08-09T20:27:01.168Z,40.93
2022-08-09T20:29:32.696Z,40.96
2022-08-09T20:32:29.055Z,40.91
2022-08-09T20:34:55.532Z,40.92
2022-08-09T20:37:22.874Z,40.82
2022-08-09T20:40:14.974Z,40.83
2022-08-09T20:42:37.997Z,40.72
2022-08-09T20:47:55.169Z,41.12
2022-08-09T20:50:47.527Z,41.20
2022-08-09T20:53:21.113Z,41.52
2022-08-09T20:56:01.924Z,41.42
2022-08-09T20:58:32.242Z,41.93
2022-08-09T21:01:14.138Z,41.51
2022-08-09T21:05:48.546Z,41.55
2022-08-09T21:06:35.187Z,41.72
2022-08-09T21:09:03.530Z,41.39
2022-08-09T21:14:17.711Z,41.76
2022-08-09T21:16:45.655Z,42.18
2022-08-09T21:20:19.265Z,42.32
2022-08-09T21:22:00.139Z,42.58
2022-08-09T21:24:33.777Z,42.59
2022-08-09T21:27:50.234Z,43.22
2022-08-09T21:29:49.543Z,43.11
2022-08-09T21:32:18.695Z,43.13
2022-08-09T21:34:49.064Z,43.74
2022-08-09T21:37:18.120Z,43.65
2022-08-09T21:39:45.445Z,43.79
2022-08-09T21:42:16.925Z,44.40
2022-08-09T21:44:44.555Z,43.79
2022-08-09T21:47:17.354Z,43.95
2022-08-09T21:49:45.301Z,44.30
2022-08-09T21:52:17.523Z,44.07
2022-08-09T21:55:03.072Z,44.20
2022-08-09T21:57:39.616Z,44.16
2022-08-09T22:00:32.539Z,44.02
2022-08-09T22:03:02.346Z,44.40
2022-08-09T22:05:36.680Z,44.43
2022-08-09T22:08:13.508Z,44.51
2022-08-09T22:11:49.671Z,44.61
2022-08-09T22:13:34.009Z,44.64
2022-08-09T22:16:03.719Z,45.04
2022-08-09T22:18:33.023Z,45.21
2022-08-09T22:21:00.783Z,44.99
2022-08-09T22:23:35.622Z,45.33
2022-08-09T22:26:23.289Z,45.33
2022-08-09T22:29:05.311Z,45.17
2022-08-09T22:31:50.111Z,45.56
2022-08-09T22:34:27.199Z,45.42
2022-08-09T22:36:58.963Z,45.28
2022-08-09T22:39:55.448Z,45.38
2022-08-09T22:42:22.324Z,45.47
2022-08-09T22:48:04.621Z,45.27
2022-08-09T22:48:15.883Z,45.41
2022-08-09T22:50:30.652Z,45.90
2022-08-09T22:52:58.845Z,45.37
2022-08-09T22:55:39.706Z,45.61
2022-08-09T22:58:20.480Z,45.62
2022-08-09T23:00:58.279Z,45.89
2022-08-09T23:04:02.341Z,45.87
2022-08-09T23:06:14.275Z,46.23
2022-08-09T23:08:47.097Z,46.09
2022-08-09T23:11:15.852Z,46.36
2022-08-09T23:13:48.034Z,46.26
2022-08-09T23:16:17.419Z,46.14
2022-08-09T23:18:45.418Z,46.45
2022-08-09T23:21:13.872Z,46.10
2022-08-09T23:23:40.759Z,46.25
2022-08-09T23:26:10.460Z,45.94
2022-08-09T23:28:37.165Z,46.09
2022-08-09T23:31:03.811Z,46.31
2022-08-09T23:33:30.431Z,46.34
2022-08-09T23:36:06.443Z,46.52
2022-08-09T23:38:34.676Z,46.48
2022-08-09T23:41:01.923Z,46.79
2022-08-09T23:43:28.503Z,46.46
2022-08-09T23:45:55.167Z,46.87
2022-08-09T23:48:21.847Z,46.92
2022-08-09T23:50:48.474Z,47.25
2022-08-09T23:53:15.152Z,46.73
2022-08-09T23:55:49.289Z,47.04
2022-08-09T23:58:26.013Z,46.35
